Time;durP1;ratioP1;P1;durP2;ratioP2;P2;SDS_P1;SDS_P2;PMS_P1;PMS_P2;Temp;Humidity;BMP_temperature;BMP_pressure;BME280_temperature;BME280_humidity;BME280_pressure;Samples;Min_cycle;Max_cycle;Signal;HPM_P1;HPM_P2
2022/07/18 00:00:14;;;;;;;8.05;5.00;;;17.00;99.90;;;;;;5097192;28;20461;-83
2022/07/18 00:02:39;;;;;;;12.70;9.07;;;16.90;99.90;;;;;;5106446;28;20036;-83
2022/07/18 00:05:05;;;;;;;9.85;4.38;;;16.80;99.90;;;;;;5082705;28;20040;-83
2022/07/18 00:07:31;;;;;;;8.32;4.00;;;16.80;99.90;;;;;;5096974;28;20616;-85
2022/07/18 00:09:57;;;;;;;8.10;4.00;;;16.70;99.90;;;;;;5102567;28;20166;-84
2022/07/18 00:12:22;;;;;;;8.90;4.65;;;16.70;99.90;;;;;;5098726;28;20054;-83
2022/07/18 00:14:48;;;;;;;8.82;5.40;;;16.70;99.90;;;;;;5067045;28;20040;-83
2022/07/18 00:17:13;;;;;;;9.02;5.35;;;16.60;99.90;;;;;;5080402;28;20032;-83
2022/07/18 00:19:39;;;;;;;10.73;5.80;;;16.60;99.90;;;;;;5072318;28;20028;-83
2022/07/18 00:22:05;;;;;;;8.50;3.88;;;16.50;99.90;;;;;;5088009;28;20394;-83
2022/07/18 00:24:34;;;;;;;10.35;6.65;;;16.50;99.90;;;;;;5075809;28;20028;-82
2022/07/18 00:27:00;;;;;;;9.65;6.43;;;16.40;99.90;;;;;;5091990;28;20097;-83
2022/07/18 00:29:26;;;;;;;9.48;6.53;;;16.50;99.90;;;;;;5075265;28;20050;-83
2022/07/18 00:31:52;;;;;;;10.40;7.15;;;16.50;99.90;;;;;;5092326;28;20040;-83
2022/07/18 00:34:18;;;;;;;9.82;7.25;;;16.50;99.90;;;;;;5074363;28;20142;-83
2022/07/18 00:36:44;;;;;;;11.27;7.60;;;16.50;99.90;;;;;;5074651;28;20036;-83
2022/07/18 00:39:10;;;;;;;11.63;7.80;;;16.50;99.90;;;;;;5074414;28;20085;-83
2022/07/18 00:41:35;;;;;;;12.20;8.23;;;16.40;99.90;;;;;;5074868;28;20032;-84
2022/07/18 00:44:01;;;;;;;11.85;7.97;;;16.40;99.90;;;;;;5093018;28;20035;-84
2022/07/18 00:46:28;;;;;;;11.23;7.95;;;16.40;99.90;;;;;;5074666;28;20047;-84
2022/07/18 00:48:54;;;;;;;12.30;7.72;;;16.40;99.90;;;;;;5091186;28;20036;-84
2022/07/18 00:51:21;;;;;;;9.27;6.28;;;16.40;99.90;;;;;;5074033;28;20079;-84
2022/07/18 00:53:48;;;;;;;10.95;7.03;;;16.40;99.90;;;;;;5091638;28;20071;-83
2022/07/18 00:56:17;;;;;;;10.88;6.93;;;16.30;99.90;;;;;;5089889;28;20119;-83
2022/07/18 00:58:44;;;;;;;10.23;6.70;;;16.30;99.90;;;;;;5083988;28;20067;-83
2022/07/18 01:03:56;;;;;;;12.48;7.78;;;16.30;99.90;;;;;;5088710;28;20119;-83
2022/07/18 01:06:22;;;;;;;10.55;5.57;;;16.20;99.90;;;;;;5074664;28;20040;-83
2022/07/18 01:08:48;;;;;;;10.98;6.95;;;16.10;99.90;;;;;;5074566;28;20040;-83
2022/07/18 01:11:13;;;;;;;10.50;6.55;;;16.10;99.90;;;;;;5074157;28;20123;-83
2022/07/18 01:13:40;;;;;;;10.82;6.90;;;16.10;99.90;;;;;;5091412;28;20071;-83
2022/07/18 01:16:06;;;;;;;11.07;6.57;;;16.10;99.90;;;;;;5089913;28;20154;-83
2022/07/18 01:18:32;;;;;;;11.77;8.27;;;16.10;99.90;;;;;;5073969;28;20119;-83
2022/07/18 01:20:57;;;;;;;10.80;7.07;;;16.10;99.90;;;;;;5088841;28;20044;-83
2022/07/18 01:23:23;;;;;;;12.27;8.30;;;16.10;99.90;;;;;;5090715;28;20036;-83
2022/07/18 01:25:48;;;;;;;11.05;8.13;;;16.20;99.90;;;;;;5090302;28;20040;-83
2022/07/18 01:28:14;;;;;;;12.25;8.52;;;16.10;99.90;;;;;;5074583;28;20039;-83
2022/07/18 01:30:40;;;;;;;12.10;9.00;;;16.20;99.90;;;;;;5090534;28;20756;-83
2022/07/18 01:33:06;;;;;;;13.20;8.75;;;16.10;99.90;;;;;;5072993;28;20109;-83
2022/07/18 01:35:32;;;;;;;13.18;8.88;;;16.10;99.90;;;;;;5090205;28;20040;-83
2022/07/18 01:38:00;;;;;;;11.20;7.80;;;16.10;99.90;;;;;;5089505;28;20036;-83
2022/07/18 01:40:27;;;;;;;10.70;6.97;;;16.00;99.90;;;;;;5090389;28;20086;-83
2022/07/18 01:42:52;;;;;;;10.10;7.10;;;16.00;99.90;;;;;;5090541;28;20374;-83
2022/07/18 01:45:19;;;;;;;11.65;7.20;;;16.00;99.90;;;;;;5090317;28;20488;-83
2022/07/18 01:47:45;;;;;;;11.80;6.82;;;16.00;99.90;;;;;;5091374;28;20040;-83
2022/07/18 01:50:12;;;;;;;9.82;6.05;;;15.90;99.90;;;;;;5090086;28;20755;-84
2022/07/18 01:52:38;;;;;;;10.07;6.22;;;15.90;99.90;;;;;;5073664;28;20036;-83
2022/07/18 01:55:06;;;;;;;9.95;5.97;;;15.90;99.90;;;;;;5089724;28;20036;-83
2022/07/18 01:57:32;;;;;;;10.98;7.70;;;15.80;99.90;;;;;;5073556;28;20044;-83
2022/07/18 01:59:57;;;;;;;11.68;8.07;;;15.80;99.90;;;;;;5090030;28;20088;-83
2022/07/18 02:02:23;;;;;;;13.10;8.75;;;15.70;99.90;;;;;;5089484;28;20416;-83
2022/07/18 02:05:00;;;;;;;11.82;5.60;;;15.70;99.90;;;;;;5089975;28;20068;-83
2022/07/18 02:07:35;;;;;;;11.40;8.30;;;15.60;99.90;;;;;;5089798;28;20081;-83
2022/07/18 02:10:04;;;;;;;11.82;7.57;;;15.60;99.90;;;;;;5072459;28;20047;-83
2022/07/18 02:12:30;;;;;;;12.23;9.13;;;15.70;99.90;;;;;;5072593;28;20430;-83
2022/07/18 02:14:55;;;;;;;11.85;8.23;;;15.60;99.90;;;;;;5089218;28;20169;-83
2022/07/18 02:17:21;;;;;;;15.10;8.82;;;15.60;99.90;;;;;;5089329;28;20520;-82
2022/07/18 02:19:47;;;;;;;11.48;6.05;;;15.60;99.90;;;;;;5089433;28;20040;-83
2022/07/18 02:22:13;;;;;;;14.32;9.20;;;15.50;99.90;;;;;;5072559;28;20412;-84
2022/07/18 02:24:38;;;;;;;12.40;8.68;;;15.50;99.90;;;;;;5089943;28;20169;-84
2022/07/18 02:27:04;;;;;;;11.50;6.35;;;15.50;99.90;;;;;;5088911;28;20047;-83
2022/07/18 02:29:30;;;;;;;12.30;8.25;;;15.50;99.90;;;;;;5073432;28;20043;-83
2022/07/18 02:31:56;;;;;;;12.65;8.38;;;15.50;99.90;;;;;;5089696;28;20125;-83
2022/07/18 02:34:21;;;;;;;11.32;8.20;;;15.50;99.90;;;;;;5072529;28;20119;-84
2022/07/18 02:36:50;;;;;;;13.80;9.02;;;15.50;99.90;;;;;;5089672;28;20497;-84
2022/07/18 02:39:16;;;;;;;14.32;8.38;;;15.50;99.90;;;;;;5089257;28;20039;-83
2022/07/18 02:41:42;;;;;;;14.48;8.07;;;15.50;99.90;;;;;;5089167;28;20666;-83
2022/07/18 02:44:08;;;;;;;11.70;6.43;;;15.50;99.90;;;;;;5088456;28;20129;-83
2022/07/18 02:46:33;;;;;;;13.35;7.32;;;15.40;99.90;;;;;;5089729;28;20650;-83
2022/07/18 02:48:59;;;;;;;13.48;8.98;;;15.40;99.90;;;;;;5073085;28;20036;-83
2022/07/18 02:51:25;;;;;;;12.15;8.98;;;15.30;99.90;;;;;;5071964;28;20042;-83
2022/07/18 02:53:51;;;;;;;12.00;7.88;;;15.30;99.90;;;;;;5089503;28;20071;-83
2022/07/18 02:56:17;;;;;;;11.95;8.02;;;15.30;99.90;;;;;;5088951;28;20063;-83
2022/07/18 02:58:42;;;;;;;13.38;5.00;;;15.30;99.90;;;;;;5089220;28;20408;-82
2022/07/18 03:01:08;;;;;;;13.13;6.95;;;15.20;99.90;;;;;;5089108;28;20505;-82
2022/07/18 03:03:33;;;;;;;11.68;8.10;;;15.20;99.90;;;;;;5088270;28;20028;-82
2022/07/18 03:05:59;;;;;;;13.18;6.40;;;15.20;99.90;;;;;;5089885;28;20108;-84
2022/07/18 03:08:24;;;;;;;11.82;8.15;;;15.10;99.90;;;;;;5071902;28;20070;-83
2022/07/18 03:10:50;;;;;;;12.23;8.73;;;15.10;99.90;;;;;;5089298;28;20052;-83
2022/07/18 03:13:16;;;;;;;11.93;8.18;;;15.10;99.90;;;;;;5088108;28;20067;-83
2022/07/18 03:15:41;;;;;;;11.70;8.57;;;15.10;99.90;;;;;;5089384;28;20036;-83
2022/07/18 03:18:07;;;;;;;15.18;9.43;;;15.00;99.90;;;;;;5089129;28;20519;-83
2022/07/18 03:20:32;;;;;;;13.88;8.95;;;15.00;99.90;;;;;;5088578;28;20088;-83
2022/07/18 03:22:58;;;;;;;10.40;7.47;;;15.00;99.90;;;;;;5088355;28;20123;-83
2022/07/18 03:25:25;;;;;;;12.13;8.32;;;15.00;99.90;;;;;;5090363;28;20397;-82
2022/07/18 03:27:50;;;;;;;11.68;6.30;;;15.00;99.90;;;;;;5090689;28;20390;-83
2022/07/18 03:30:16;;;;;;;13.00;9.85;;;14.90;99.90;;;;;;5089056;28;20546;-83
2022/07/18 03:32:42;;;;;;;14.77;10.07;;;14.90;99.90;;;;;;5071639;28;20459;-83
2022/07/18 03:35:07;;;;;;;15.05;9.40;;;14.90;99.90;;;;;;5089428;28;20047;-84
2022/07/18 03:37:33;;;;;;;12.70;8.93;;;14.90;99.90;;;;;;5088120;28;20086;-83
2022/07/18 03:39:59;;;;;;;11.05;5.90;;;14.90;99.90;;;;;;5088993;28;20036;-83
2022/07/18 03:42:25;;;;;;;10.80;7.00;;;14.90;99.90;;;;;;5088789;28;20040;-83
2022/07/18 03:44:50;;;;;;;10.52;5.93;;;14.80;99.90;;;;;;5088751;28;20550;-83
2022/07/18 03:47:16;;;;;;;12.00;4.82;;;14.80;99.90;;;;;;5089515;28;20118;-83
2022/07/18 03:49:41;;;;;;;13.02;8.00;;;14.70;99.90;;;;;;5088483;28;20042;-83
2022/07/18 03:52:07;;;;;;;10.15;5.72;;;14.70;99.90;;;;;;5072483;28;20453;-83
2022/07/18 03:54:33;;;;;;;13.05;9.50;;;14.70;99.90;;;;;;5071612;28;20491;-83
2022/07/18 03:56:58;;;;;;;14.27;9.88;;;14.70;99.90;;;;;;5088955;28;20489;-84
2022/07/18 03:59:24;;;;;;;14.98;9.50;;;14.80;99.90;;;;;;5088516;28;20767;-84
2022/07/18 04:01:49;;;;;;;13.32;9.85;;;14.80;99.90;;;;;;5071340;28;20081;-83
2022/07/18 04:04:15;;;;;;;14.15;7.13;;;14.90;99.90;;;;;;5088715;28;20032;-84
2022/07/18 04:06:41;;;;;;;13.95;6.18;;;14.80;99.90;;;;;;5088530;28;20497;-83
2022/07/18 04:09:06;;;;;;;13.00;9.00;;;14.70;99.90;;;;;;5088706;28;20123;-84
2022/07/18 04:11:32;;;;;;;13.95;6.68;;;14.80;99.90;;;;;;5071817;28;20051;-83
2022/07/18 04:13:57;;;;;;;13.27;8.90;;;14.80;99.90;;;;;;5087700;28;20455;-83
2022/07/18 04:16:23;;;;;;;14.32;6.43;;;14.90;99.90;;;;;;5088660;28;20036;-83
2022/07/18 04:18:49;;;;;;;13.57;10.15;;;14.90;99.90;;;;;;5069177;28;20043;-81
2022/07/18 04:21:15;;;;;;;12.80;8.98;;;14.90;99.90;;;;;;5084805;28;20370;-82
2022/07/18 04:23:41;;;;;;;14.52;9.13;;;15.00;99.90;;;;;;5066859;28;20044;-82
2022/07/18 04:26:07;;;;;;;14.60;6.70;;;15.10;99.90;;;;;;5085855;28;20043;-83
2022/07/18 04:28:32;;;;;;;13.68;9.32;;;15.00;99.90;;;;;;5086682;28;20046;-83
2022/07/18 04:30:58;;;;;;;12.48;8.70;;;15.00;99.90;;;;;;5070314;28;20044;-82
2022/07/18 04:33:24;;;;;;;12.43;8.30;;;15.10;99.90;;;;;;5088955;28;20507;-82
2022/07/18 04:35:50;;;;;;;11.25;5.55;;;15.10;99.90;;;;;;5055782;28;20041;-83
2022/07/18 04:38:15;;;;;;;12.10;7.68;;;15.10;99.90;;;;;;5091046;28;20036;-82
2022/07/18 04:40:41;;;;;;;12.82;6.97;;;15.10;99.90;;;;;;5091342;28;20039;-82
2022/07/18 04:43:07;;;;;;;12.75;7.78;;;15.20;99.90;;;;;;5092371;28;20043;-83
2022/07/18 04:45:34;;;;;;;12.73;7.50;;;15.20;99.90;;;;;;5090761;28;20528;-83
2022/07/18 04:48:01;;;;;;;14.10;5.72;;;15.20;99.90;;;;;;5091882;28;20035;-83
2022/07/18 04:50:29;;;;;;;13.52;8.80;;;15.20;99.90;;;;;;5091057;28;20089;-83
2022/07/18 04:52:55;;;;;;;12.88;8.10;;;15.20;99.90;;;;;;5091595;28;20039;-83
2022/07/18 04:55:22;;;;;;;13.15;8.52;;;15.30;99.90;;;;;;5074571;28;20105;-83
2022/07/18 04:57:48;;;;;;;13.18;8.75;;;15.30;99.90;;;;;;5090894;28;20390;-83
2022/07/18 05:00:24;;;;;;;14.25;9.07;;;15.40;99.90;;;;;;5074039;28;20039;-83
2022/07/18 05:02:52;;;;;;;11.15;5.65;;;15.40;99.90;;;;;;5091399;28;20062;-82
2022/07/18 05:05:19;;;;;;;14.15;8.32;;;15.40;99.90;;;;;;5091241;28;20048;-82
2022/07/18 05:07:46;;;;;;;11.57;6.28;;;15.50;99.90;;;;;;5074997;28;20044;-82
2022/07/18 05:10:13;;;;;;;12.93;8.45;;;15.50;99.90;;;;;;5090651;28;20036;-82
2022/07/18 05:12:41;;;;;;;12.20;8.45;;;15.60;99.90;;;;;;5091263;28;20603;-82
2022/07/18 05:15:09;;;;;;;12.88;8.18;;;15.70;99.90;;;;;;5090527;28;20047;-83
2022/07/18 05:17:36;;;;;;;11.40;7.63;;;15.70;99.90;;;;;;5074044;28;20051;-83
2022/07/18 05:20:07;;;;;;;12.20;7.38;;;15.80;99.90;;;;;;5073747;28;20031;-83
2022/07/18 05:22:34;;;;;;;12.13;7.93;;;15.90;99.90;;;;;;5091132;28;20500;-83
2022/07/18 05:25:00;;;;;;;11.10;7.28;;;15.90;99.90;;;;;;5090944;28;20047;-83
2022/07/18 05:27:26;;;;;;;11.85;7.60;;;16.00;99.90;;;;;;5090183;28;20036;-83
2022/07/18 05:29:51;;;;;;;14.15;7.70;;;16.00;99.90;;;;;;5073394;28;20062;-83
2022/07/18 05:32:17;;;;;;;12.57;5.80;;;16.10;99.90;;;;;;5073077;28;20044;-83
2022/07/18 05:34:42;;;;;;;13.25;8.38;;;16.10;99.90;;;;;;5072882;28;20097;-83
2022/07/18 05:37:08;;;;;;;12.23;6.97;;;16.10;99.90;;;;;;5072908;28;20036;-83
2022/07/18 05:39:33;;;;;;;11.35;7.35;;;16.20;99.90;;;;;;5071767;28;20089;-84
2022/07/18 05:42:01;;;;;;;13.60;7.90;;;16.20;99.90;;;;;;5073599;28;20032;-83
2022/07/18 05:44:27;;;;;;;12.35;7.40;;;16.30;99.90;;;;;;5089832;28;20489;-83
2022/07/18 05:46:53;;;;;;;13.57;6.88;;;16.30;99.90;;;;;;5072968;28;20036;-83
2022/07/18 05:49:19;;;;;;;12.20;7.35;;;16.40;99.90;;;;;;5090176;28;20067;-83
2022/07/18 05:51:44;;;;;;;12.55;7.50;;;16.40;99.90;;;;;;5072695;28;20044;-84
2022/07/18 05:54:10;;;;;;;11.52;6.68;;;16.50;99.90;;;;;;5090449;28;20123;-84
2022/07/18 05:56:35;;;;;;;11.07;6.90;;;16.60;99.90;;;;;;5090581;28;20493;-83
2022/07/18 05:59:01;;;;;;;10.90;4.57;;;16.60;99.90;;;;;;5089191;28;20048;-83
2022/07/18 06:01:27;;;;;;;10.73;6.35;;;16.70;99.90;;;;;;5090231;28;20039;-83
2022/07/18 06:03:52;;;;;;;11.82;6.80;;;16.80;99.90;;;;;;5089617;28;20114;-84
2022/07/18 06:06:18;;;;;;;9.73;5.82;;;16.90;99.90;;;;;;5090266;28;20051;-84
2022/07/18 06:08:44;;;;;;;13.10;5.38;;;17.10;99.90;;;;;;5090031;28;20050;-84
2022/07/18 06:11:10;;;;;;;11.00;6.03;;;17.10;99.90;;;;;;5072428;28;20390;-83
2022/07/18 06:13:39;;;;;;;12.32;5.82;;;17.20;99.90;;;;;;5090449;28;20075;-83
2022/07/18 06:16:05;;;;;;;10.90;5.53;;;17.30;99.90;;;;;;5089290;28;20055;-83
2022/07/18 06:18:31;;;;;;;10.55;6.10;;;17.40;99.90;;;;;;5089983;28;20429;-83
2022/07/18 06:20:57;;;;;;;11.50;5.63;;;17.40;99.90;;;;;;5089283;28;20035;-83
2022/07/18 06:23:23;;;;;;;9.32;5.15;;;17.50;99.90;;;;;;5072898;28;20104;-83
2022/07/18 06:25:48;;;;;;;11.93;5.90;;;17.60;99.90;;;;;;5090184;28;20107;-84
2022/07/18 06:28:14;;;;;;;11.82;5.57;;;17.60;99.90;;;;;;5089510;28;20463;-84
2022/07/18 06:30:39;;;;;;;10.40;5.63;;;17.70;99.90;;;;;;5089842;28;20055;-84
2022/07/18 06:33:07;;;;;;;10.02;4.97;;;17.80;99.90;;;;;;5090166;28;20118;-84
2022/07/18 06:35:33;;;;;;;11.48;5.05;;;17.80;99.90;;;;;;5089357;28;20043;-84
2022/07/18 06:37:59;;;;;;;11.75;5.05;;;17.90;99.90;;;;;;5089564;28;20044;-84
2022/07/18 06:40:25;;;;;;;11.43;5.40;;;18.00;99.90;;;;;;5089259;28;20030;-84
2022/07/18 06:42:51;;;;;;;10.73;4.93;;;18.00;99.90;;;;;;5089657;28;20512;-84
2022/07/18 06:45:17;;;;;;;9.68;5.22;;;18.10;99.90;;;;;;5089853;28;20039;-84
2022/07/18 06:47:43;;;;;;;11.45;5.28;;;18.10;99.90;;;;;;5088675;28;20035;-84
2022/07/18 06:50:11;;;;;;;12.02;5.10;;;18.30;99.90;;;;;;5089040;28;20043;-84
2022/07/18 06:52:39;;;;;;;13.60;5.15;;;18.30;99.90;;;;;;5072134;28;20508;-85
2022/07/18 06:55:05;;;;;;;11.38;4.85;;;18.40;99.90;;;;;;5071778;28;20036;-84
2022/07/18 06:57:31;;;;;;;9.95;4.70;;;18.40;99.90;;;;;;5089179;28;20478;-85
2022/07/18 06:59:57;;;;;;;10.82;4.53;;;18.50;99.90;;;;;;5072076;28;20043;-84
2022/07/18 07:02:22;;;;;;;9.30;4.50;;;18.50;99.90;;;;;;5090068;28;20040;-85
2022/07/18 07:04:48;;;;;;;10.07;4.47;;;18.60;99.90;;;;;;5083157;28;20046;-84
2022/07/18 07:07:13;;;;;;;8.43;4.32;;;18.70;99.90;;;;;;5077439;28;20696;-84
2022/07/18 07:09:39;;;;;;;11.05;4.47;;;18.70;99.90;;;;;;5082148;28;20410;-84
2022/07/18 07:12:05;;;;;;;10.70;5.03;;;18.80;99.90;;;;;;5095522;28;20040;-84
2022/07/18 07:14:30;;;;;;;10.43;4.57;;;18.90;99.90;;;;;;5086207;28;20039;-86
2022/07/18 07:16:56;;;;;;;12.80;5.00;;;19.00;99.90;;;;;;5106741;28;20059;-86
2022/07/18 07:19:22;;;;;;;8.95;4.63;;;19.10;99.90;;;;;;5106655;28;20036;-85
2022/07/18 07:21:47;;;;;;;8.73;4.10;;;19.30;99.90;;;;;;5100786;28;20044;-85
2022/07/18 07:24:13;;;;;;;9.18;4.20;;;19.40;99.90;;;;;;5079027;28;20175;-85
2022/07/18 07:26:38;;;;;;;8.48;4.05;;;19.50;99.90;;;;;;5086461;28;20059;-84
2022/07/18 07:29:04;;;;;;;8.77;3.72;;;19.60;99.90;;;;;;5072772;28;20485;-83
2022/07/18 07:31:30;;;;;;;10.82;3.80;;;19.80;99.90;;;;;;5073015;28;20093;-84
2022/07/18 07:33:55;;;;;;;9.18;3.45;;;19.90;99.90;;;;;;5106895;28;20044;-85
2022/07/18 07:36:21;;;;;;;7.80;2.80;;;20.10;99.90;;;;;;5091041;28;20485;-84
2022/07/18 07:38:47;;;;;;;9.57;3.28;;;20.20;99.90;;;;;;5123923;28;20072;-84
2022/07/18 07:41:15;;;;;;;9.52;3.50;;;20.30;99.90;;;;;;5071612;28;20062;-85
2022/07/18 07:43:41;;;;;;;9.77;3.58;;;20.50;99.90;;;;;;5106150;28;20123;-86
2022/07/18 07:46:07;;;;;;;10.18;3.50;;;20.60;99.90;;;;;;5106852;28;20120;-85
2022/07/18 07:48:32;;;;;;;9.38;3.00;;;20.60;99.90;;;;;;5106663;28;20497;-85
2022/07/18 07:50:58;;;;;;;11.20;3.20;;;20.70;99.90;;;;;;5106719;28;20044;-85
2022/07/18 07:53:24;;;;;;;11.52;3.78;;;20.80;99.90;;;;;;5106567;28;20047;-85
2022/07/18 07:55:49;;;;;;;8.80;3.10;;;20.90;99.90;;;;;;5106812;28;20067;-85
2022/07/18 07:58:15;;;;;;;10.38;2.95;;;21.10;99.90;;;;;;5072672;28;20058;-85
2022/07/18 08:00:41;;;;;;;13.25;3.00;;;21.20;99.90;;;;;;5110121;28;20040;-86
2022/07/18 08:03:08;;;;;;;7.45;2.80;;;21.30;99.90;;;;;;5110576;28;20043;-85
2022/07/18 08:05:37;;;;;;;7.15;2.42;;;21.40;99.90;;;;;;5076061;28;20036;-85
2022/07/18 08:08:03;;;;;;;8.02;2.40;;;21.50;99.90;;;;;;5076424;28;20040;-85
2022/07/18 08:10:30;;;;;;;12.50;2.88;;;21.50;99.90;;;;;;5092969;28;20040;-86
2022/07/18 08:12:56;;;;;;;7.63;2.33;;;21.70;99.90;;;;;;5110147;28;20051;-86
2022/07/18 08:15:21;;;;;;;7.95;2.35;;;21.80;98.70;;;;;;5110029;28;20044;-86
2022/07/18 08:17:48;;;;;;;8.38;1.92;;;21.90;98.50;;;;;;5076225;28;20044;-86
2022/07/18 08:20:16;;;;;;;8.77;2.20;;;21.90;99.30;;;;;;5110081;28;20040;-86
2022/07/18 08:23:01;;;;;;;7.82;2.25;;;22.00;96.80;;;;;;5127051;27;20115;-86
2022/07/18 08:25:28;;;;;;;9.60;2.30;;;22.10;96.40;;;;;;5092771;28;20036;-87
2022/07/18 08:27:54;;;;;;;8.93;2.13;;;22.20;97.90;;;;;;5076142;28;20036;-87
2022/07/18 08:30:20;;;;;;;6.72;2.10;;;22.30;97.50;;;;;;5092755;28;20558;-86
2022/07/18 08:32:46;;;;;;;7.22;1.90;;;22.40;95.20;;;;;;5109702;28;20043;-86
2022/07/18 08:35:11;;;;;;;9.45;2.17;;;22.60;90.80;;;;;;5110064;28;20090;-87
2022/07/18 08:37:37;;;;;;;6.80;1.83;;;22.70;88.90;;;;;;5109790;28;20126;-87
2022/07/18 08:40:03;;;;;;;6.53;1.88;;;22.80;86.80;;;;;;5075128;28;20493;-87
2022/07/18 08:42:31;;;;;;;6.70;2.10;;;23.00;78.30;;;;;;5109972;28;20067;-87
2022/07/18 08:44:57;;;;;;;7.65;2.22;;;23.00;84.30;;;;;;5092708;28;20036;-87
2022/07/18 08:47:24;;;;;;;9.70;2.58;;;23.10;81.10;;;;;;5092733;28;20050;-87
2022/07/18 08:49:50;;;;;;;7.80;2.10;;;23.20;79.80;;;;;;5109451;28;20043;-87
2022/07/18 08:52:16;;;;;;;8.82;2.35;;;23.20;74.70;;;;;;5075970;28;20432;-87
2022/07/18 08:54:42;;;;;;;8.80;2.58;;;23.20;74.70;;;;;;5109133;28;20040;-87
2022/07/18 08:57:08;;;;;;;8.25;2.55;;;23.30;77.00;;;;;;5075508;28;20032;-87
2022/07/18 08:59:34;;;;;;;11.55;2.63;;;23.40;79.00;;;;;;5109098;28;20062;-87
2022/07/18 09:01:59;;;;;;;28.50;4.03;;;23.50;77.20;;;;;;5109577;28;20071;-87
2022/07/18 09:04:36;;;;;;;12.85;2.88;;;23.60;76.30;;;;;;5109467;28;20032;-87
2022/07/18 09:07:03;;;;;;;6.72;1.83;;;23.70;73.10;;;;;;5109134;28;20040;-86
2022/07/18 09:09:29;;;;;;;9.02;2.28;;;23.80;72.60;;;;;;5098378;28;20044;-87
2022/07/18 09:11:59;;;;;;;8.23;2.08;;;23.90;71.00;;;;;;5054650;28;20028;-87
2022/07/18 09:14:35;;;;;;;9.07;2.22;;;24.00;71.90;;;;;;5088753;28;20044;-86
2022/07/18 09:17:07;;;;;;;9.13;2.50;;;24.10;69.80;;;;;;5072090;28;20547;-87
2022/07/18 09:19:37;;;;;;;10.70;2.23;;;24.20;69.40;;;;;;5072517;28;20041;-87
2022/07/18 09:22:14;;;;;;;9.48;2.03;;;24.20;67.60;;;;;;5072005;28;20357;-86
2022/07/18 09:24:57;;;;;;;10.30;2.13;;;24.40;68.50;;;;;;5072974;28;20082;-87
2022/07/18 09:27:24;;;;;;;8.55;2.20;;;24.40;66.60;;;;;;5054850;28;20037;-87
2022/07/18 09:30:10;;;;;;;11.23;2.83;;;24.40;65.50;;;;;;5072740;28;20050;-87
2022/07/18 09:32:37;;;;;;;12.10;2.63;;;24.50;65.20;;;;;;5088476;28;20445;-87
2022/07/18 09:35:11;;;;;;;8.13;2.08;;;24.50;66.10;;;;;;5054649;28;20071;-87
2022/07/18 09:37:39;;;;;;;8.82;2.33;;;24.60;69.80;;;;;;5054858;28;20170;-87
2022/07/18 09:40:15;;;;;;;6.28;1.98;;;24.70;67.90;;;;;;5054563;28;20036;-87
2022/07/18 09:42:41;;;;;;;8.30;2.30;;;24.80;68.00;;;;;;5071463;28;20032;-87
2022/07/18 09:45:07;;;;;;;9.02;2.20;;;24.80;65.20;;;;;;5071114;28;20033;-87
2022/07/18 09:47:52;;;;;;;11.50;2.33;;;25.00;62.30;;;;;;5071329;28;20448;-87
2022/07/18 09:50:24;;;;;;;9.52;2.20;;;25.00;62.40;;;;;;5071086;28;20041;-87
2022/07/18 09:53:11;;;;;;;9.70;2.33;;;25.10;62.90;;;;;;5054991;28;20051;-87
2022/07/18 09:55:43;;;;;;;9.32;2.55;;;25.20;66.00;;;;;;5071254;28;20036;-87
2022/07/18 09:58:09;;;;;;;9.25;2.95;;;25.20;61.00;;;;;;5099640;28;20395;-87
2022/07/18 10:00:36;;;;;;;15.40;2.97;;;25.30;60.50;;;;;;5107861;28;20036;-87
2022/07/18 10:03:05;;;;;;;13.48;2.40;;;25.40;61.80;;;;;;5091278;28;20172;-87
2022/07/18 10:05:33;;;;;;;12.50;2.40;;;25.40;61.80;;;;;;5091125;28;20036;-86
2022/07/18 10:08:00;;;;;;;6.97;2.10;;;25.50;60.60;;;;;;5090813;28;20083;-87
2022/07/18 10:10:27;;;;;;;6.72;1.95;;;25.60;60.40;;;;;;5107918;28;20086;-87
2022/07/18 10:12:58;;;;;;;10.80;2.50;;;25.80;60.30;;;;;;5108142;28;20400;-87
2022/07/18 10:15:27;;;;;;;8.65;2.40;;;25.90;58.50;;;;;;5107949;28;20509;-87
2022/07/18 10:17:53;;;;;;;6.90;2.00;;;25.90;59.00;;;;;;5107896;28;20040;-87
2022/07/18 10:20:27;;;;;;;8.00;2.17;;;26.00;58.50;;;;;;5090208;28;20111;-87
2022/07/18 10:22:56;;;;;;;7.65;2.28;;;26.00;57.30;;;;;;5090634;28;20092;-87
2022/07/18 10:25:23;;;;;;;7.50;2.30;;;26.00;54.80;;;;;;5091091;28;20040;-87
2022/07/18 10:27:52;;;;;;;8.02;2.33;;;26.10;55.20;;;;;;5107553;28;20051;-88
2022/07/18 10:30:29;;;;;;;10.98;2.97;;;26.20;56.00;;;;;;5107668;28;20044;-87
2022/07/18 10:32:54;;;;;;;7.20;2.10;;;26.30;57.50;;;;;;5090617;28;20036;-87
2022/07/18 10:35:59;;;;;;;9.48;2.58;;;26.40;56.00;;;;;;5092000;28;20028;-87
2022/07/18 10:38:25;;;;;;;7.57;2.10;;;26.50;56.20;;;;;;5091628;28;20036;-87
2022/07/18 10:41:05;;;;;;;7.03;1.92;;;26.50;55.10;;;;;;5090320;28;20055;-87
2022/07/18 10:43:31;;;;;;;9.82;2.10;;;26.50;55.20;;;;;;5073920;28;20036;-87
2022/07/18 10:45:58;;;;;;;7.30;2.60;;;26.60;55.00;;;;;;5107274;28;20040;-87
2022/07/18 10:48:33;;;;;;;8.93;2.50;;;26.60;51.90;;;;;;5107568;28;20075;-87
2022/07/18 10:51:10;;;;;;;7.85;2.30;;;26.70;52.00;;;;;;5106833;28;20048;-87
2022/07/18 10:53:54;;;;;;;8.38;2.60;;;26.80;50.70;;;;;;5089967;28;20562;-87
2022/07/18 10:56:40;;;;;;;6.65;2.35;;;26.90;50.30;;;;;;5073827;28;20040;-87
2022/07/18 10:59:17;;;;;;;7.88;2.72;;;27.00;48.80;;;;;;5091021;28;20051;-87
2022/07/18 11:01:52;;;;;;;9.52;2.15;;;27.10;50.00;;;;;;5073435;28;20036;-87
2022/07/18 11:04:30;;;;;;;6.93;2.58;;;27.20;50.60;;;;;;5107111;28;20519;-87
2022/07/18 11:07:15;;;;;;;7.07;2.47;;;27.20;48.10;;;;;;5090076;28;20036;-87
2022/07/18 11:09:43;;;;;;;8.57;2.85;;;27.30;48.00;;;;;;5106834;28;20047;-87
2022/07/18 11:12:25;;;;;;;7.57;2.50;;;27.30;47.20;;;;;;5107098;28;20036;-87
2022/07/18 11:15:05;;;;;;;;;;;27.50;47.40;;;;;;5107728;28;20169;-87
2022/07/18 11:18:06;;;;;;;8.32;2.53;;;27.50;48.10;;;;;;5091200;28;19927;-88
2022/07/18 11:20:34;;;;;;;7.80;2.80;;;27.50;47.30;;;;;;5031682;28;20120;-87
2022/07/18 11:23:03;;;;;;;8.50;2.60;;;27.70;47.00;;;;;;5074170;28;20520;-87
2022/07/18 11:25:29;;;;;;;7.75;2.35;;;27.80;47.60;;;;;;5086721;28;20067;-87
2022/07/18 11:27:56;;;;;;;6.93;2.50;;;27.90;46.90;;;;;;5069991;28;20051;-88
2022/07/18 11:30:24;;;;;;;8.35;2.65;;;27.90;45.70;;;;;;5070738;28;20049;-87
2022/07/18 11:32:50;;;;;;;8.40;2.75;;;28.00;46.40;;;;;;5069685;28;20090;-88
2022/07/18 11:35:21;;;;;;;8.32;2.80;;;27.90;46.20;;;;;;5055832;28;20041;-87
2022/07/18 11:37:48;;;;;;;6.77;2.30;;;28.00;47.50;;;;;;5073839;28;20044;-88
2022/07/18 11:40:15;;;;;;;7.07;2.58;;;28.10;48.10;;;;;;5078769;28;20032;-88
2022/07/18 11:42:41;;;;;;;7.43;2.40;;;28.30;48.70;;;;;;5071102;28;20043;-87
2022/07/18 11:45:10;;;;;;;8.70;2.70;;;28.40;48.90;;;;;;5090272;28;20402;-87
2022/07/18 11:47:54;;;;;;;8.80;3.13;;;28.40;49.20;;;;;;5094934;28;20039;-87
2022/07/18 11:50:35;;;;;;;10.23;2.95;;;28.50;48.00;;;;;;5110725;28;20401;-87
2022/07/18 11:53:01;;;;;;;10.00;2.83;;;28.50;47.40;;;;;;5093992;28;20048;-87
2022/07/18 11:55:35;;;;;;;9.82;2.40;;;28.60;46.20;;;;;;5110831;28;20493;-87
2022/07/18 11:58:14;;;;;;;6.72;2.53;;;28.80;47.10;;;;;;5094805;28;20143;-87
2022/07/18 12:00:41;;;;;;;7.82;2.70;;;28.80;47.00;;;;;;5110468;28;20032;-87
2022/07/18 12:03:11;;;;;;;7.88;2.72;;;28.90;46.60;;;;;;5093474;28;20032;-87
2022/07/18 12:05:39;;;;;;;8.65;2.92;;;28.90;47.00;;;;;;5093925;28;20040;-87
2022/07/18 12:08:34;;;;;;;8.02;2.92;;;28.70;46.90;;;;;;5093627;28;20080;-87
2022/07/18 12:11:26;;;;;;;9.07;2.80;;;28.60;47.50;;;;;;5110213;28;20047;-87
2022/07/18 12:14:02;;;;;;;8.18;2.83;;;28.60;47.10;;;;;;5092761;28;20131;-87
2022/07/18 12:16:30;;;;;;;9.65;2.95;;;28.70;47.10;;;;;;5093503;28;20040;-87
2022/07/18 12:19:11;;;;;;;7.35;2.50;;;28.70;47.00;;;;;;5109159;28;20036;-88
2022/07/18 12:21:42;;;;;;;7.63;2.85;;;28.70;47.70;;;;;;5108047;28;20047;-87
2022/07/18 12:24:25;;;;;;;7.28;2.50;;;28.70;47.20;;;;;;5109033;28;20035;-88
2022/07/18 12:27:07;;;;;;;8.57;3.03;;;28.70;47.80;;;;;;5074467;28;20032;-87
2022/07/18 12:29:53;;;;;;;8.75;2.70;;;28.80;47.30;;;;;;5073841;28;20135;-88
2022/07/18 12:32:24;;;;;;;8.02;2.88;;;28.80;47.60;;;;;;5110547;28;20051;-88
2022/07/18 12:35:01;;;;;;;8.07;2.95;;;28.80;46.80;;;;;;5127700;28;20119;-87
2022/07/18 12:37:29;;;;;;;6.55;2.78;;;28.90;46.10;;;;;;5094976;28;20040;-87
2022/07/18 12:39:57;;;;;;;8.07;2.92;;;29.00;46.60;;;;;;5094489;28;20036;-88
2022/07/18 12:42:38;;;;;;;8.73;3.30;;;29.20;47.10;;;;;;5096019;28;20121;-88
2022/07/18 12:45:05;;;;;;;9.40;3.25;;;29.40;47.10;;;;;;5093517;28;20378;-88
2022/07/18 12:47:31;;;;;;;7.57;2.85;;;29.40;46.00;;;;;;5128108;28;20043;-88